createdAt,value
2022-08-26T00:00:56.787Z,25.90
2022-08-26T00:02:59.132Z,25.90
2022-08-26T00:05:00.808Z,25.90
2022-08-26T00:07:02.597Z,25.90
2022-08-26T00:09:04.758Z,25.90
2022-08-26T00:11:10.395Z,25.90
2022-08-26T00:13:12.898Z,25.90
2022-08-26T00:15:16.689Z,25.80
2022-08-26T00:17:18.740Z,25.80
2022-08-26T00:19:21.518Z,25.80
2022-08-26T00:21:23.256Z,25.80
2022-08-26T00:23:25.084Z,25.80
2022-08-26T00:28:34.273Z,25.80
2022-08-26T00:30:36.003Z,25.70
2022-08-26T00:32:37.745Z,25.70
2022-08-26T00:34:41.566Z,25.70
2022-08-26T00:36:43.517Z,25.70
2022-08-26T00:38:45.697Z,25.70
2022-08-26T00:40:50.264Z,25.70
2022-08-26T00:42:52.366Z,25.70
2022-08-26T00:44:54.311Z,25.70
2022-08-26T00:47:00.031Z,25.70
2022-08-26T00:49:05.285Z,25.70
2022-08-26T00:51:19.102Z,25.70
2022-08-26T00:53:25.990Z,25.70
2022-08-26T00:55:34.657Z,25.70
2022-08-26T00:57:40.117Z,25.70
2022-08-26T00:59:42.484Z,25.70
2022-08-26T01:01:44.318Z,25.70
2022-08-26T01:03:48.231Z,25.70
2022-08-26T01:05:51.048Z,25.70
2022-08-26T01:07:53.283Z,25.70
2022-08-26T01:09:55.450Z,25.70
2022-08-26T01:11:58.703Z,25.60
2022-08-26T01:14:02.011Z,25.60
2022-08-26T01:16:06.117Z,25.70
2022-08-26T01:18:08.522Z,25.70
2022-08-26T01:20:18.028Z,25.60
2022-08-26T01:22:22.756Z,25.70
2022-08-26T01:24:30.725Z,25.70
2022-08-26T01:26:34.269Z,25.60
2022-08-26T01:28:36.795Z,25.60
2022-08-26T01:30:38.687Z,25.60
2022-08-26T01:32:40.469Z,25.70
2022-08-26T01:34:42.794Z,25.60
2022-08-26T01:36:49.209Z,25.60
2022-08-26T01:38:53.364Z,25.60
2022-08-26T01:40:55.055Z,25.60
2022-08-26T01:42:56.730Z,25.60
2022-08-26T01:45:04.795Z,25.60
2022-08-26T01:47:07.738Z,25.50
2022-08-26T01:49:10.571Z,25.60
2022-08-26T01:51:13.051Z,25.50
2022-08-26T01:53:18.019Z,25.60
2022-08-26T01:55:32.470Z,25.50
2022-08-26T01:57:35.304Z,25.50
2022-08-26T01:59:37.182Z,25.50
2022-08-26T02:01:39.082Z,25.50
2022-08-26T02:04:03.442Z,25.50
2022-08-26T02:06:06.399Z,25.50
2022-08-26T02:08:11.287Z,25.50
2022-08-26T02:10:13.803Z,25.50
2022-08-26T02:12:16.668Z,25.40
2022-08-26T02:14:23.344Z,25.40
2022-08-26T02:16:31.219Z,25.40
2022-08-26T02:18:34.983Z,25.40
2022-08-26T02:20:37.387Z,25.40
2022-08-26T02:22:40.393Z,25.40
2022-08-26T02:24:55.812Z,25.40
2022-08-26T02:26:58.033Z,25.40
2022-08-26T02:29:02.458Z,25.30
2022-08-26T02:31:04.331Z,25.40
2022-08-26T02:33:06.883Z,25.40
2022-08-26T02:35:11.518Z,25.40
2022-08-26T02:37:13.453Z,25.40
2022-08-26T02:39:21.925Z,25.30
2022-08-26T02:41:24.094Z,25.30
2022-08-26T02:43:31.675Z,25.30
2022-08-26T02:45:35.041Z,25.30
2022-08-26T02:47:37.394Z,25.30
2022-08-26T02:49:39.962Z,25.30
2022-08-26T02:51:46.663Z,25.30
2022-08-26T02:53:48.557Z,25.30
2022-08-26T02:55:50.379Z,25.20
2022-08-26T02:57:52.365Z,25.40
2022-08-26T02:59:54.042Z,25.20
2022-08-26T03:01:56.049Z,25.20
2022-08-26T03:03:58.559Z,25.20
2022-08-26T03:06:00.921Z,25.20
2022-08-26T03:08:02.758Z,25.20
2022-08-26T03:10:08.231Z,25.20
2022-08-26T03:12:11.714Z,25.20
2022-08-26T03:14:15.693Z,25.20
2022-08-26T03:16:17.755Z,25.20
2022-08-26T03:18:19.508Z,25.20
2022-08-26T03:20:22.273Z,25.20
2022-08-26T03:22:24.262Z,25.20
2022-08-26T03:24:26.161Z,25.20
2022-08-26T03:26:28.382Z,25.20
2022-08-26T03:28:30.201Z,25.20
2022-08-26T03:30:45.120Z,25.20
2022-08-26T03:32:47.522Z,25.20
2022-08-26T03:34:49.226Z,25.10
2022-08-26T03:36:51.077Z,25.20
2022-08-26T03:38:52.778Z,25.10
2022-08-26T03:40:55.459Z,25.10
2022-08-26T03:42:57.086Z,25.10
2022-08-26T03:44:58.714Z,25.10
2022-08-26T03:47:00.422Z,25.10
2022-08-26T03:49:02.344Z,25.10
2022-08-26T03:51:04.927Z,25.00
2022-08-26T03:53:07.523Z,25.10
2022-08-26T03:55:15.462Z,25.10
2022-08-26T03:57:17.435Z,25.00
2022-08-26T03:59:21.022Z,25.10
2022-08-26T04:01:22.774Z,25.00
2022-08-26T04:03:44.558Z,25.10
2022-08-26T04:05:46.224Z,25.00
2022-08-26T04:07:48.588Z,25.00
2022-08-26T04:09:50.360Z,25.00
2022-08-26T04:11:52.119Z,25.00
2022-08-26T04:13:53.877Z,25.00
2022-08-26T04:15:55.748Z,25.00
2022-08-26T04:17:58.216Z,25.00
2022-08-26T04:19:59.878Z,25.00
2022-08-26T04:22:02.769Z,25.00
2022-08-26T04:24:06.949Z,25.00
2022-08-26T04:26:10.970Z,25.00
2022-08-26T04:28:13.993Z,25.00
2022-08-26T04:30:15.911Z,25.00
2022-08-26T04:32:18.409Z,25.00
2022-08-26T04:34:22.910Z,25.00
2022-08-26T04:36:24.882Z,25.00
2022-08-26T04:38:26.526Z,25.00
2022-08-26T04:40:30.554Z,25.00
2022-08-26T04:42:33.316Z,25.00
2022-08-26T04:44:36.834Z,25.00
2022-08-26T04:46:39.662Z,25.10
2022-08-26T04:48:41.975Z,25.00
2022-08-26T04:50:43.652Z,25.00
2022-08-26T04:52:45.287Z,25.00
2022-08-26T04:54:46.925Z,25.00
2022-08-26T04:56:49.536Z,25.00
2022-08-26T04:58:51.219Z,25.00
2022-08-26T05:00:54.110Z,25.00
2022-08-26T05:02:55.828Z,25.00
2022-08-26T05:04:58.282Z,25.00
2022-08-26T05:07:02.563Z,25.00
2022-08-26T05:09:04.730Z,25.00
2022-08-26T05:11:06.835Z,25.00
2022-08-26T05:13:15.157Z,25.00
2022-08-26T05:15:17.442Z,25.00
2022-08-26T05:17:21.697Z,25.00
2022-08-26T05:19:23.767Z,25.00
2022-08-26T05:21:26.625Z,25.00
2022-08-26T05:23:31.959Z,25.00
2022-08-26T05:25:38.412Z,25.00
2022-08-26T05:27:40.074Z,25.00
2022-08-26T05:29:42.444Z,25.00
2022-08-26T05:31:45.989Z,25.00
2022-08-26T05:33:47.702Z,25.10
2022-08-26T05:35:52.307Z,25.00
2022-08-26T05:37:53.975Z,25.00
2022-08-26T05:39:55.765Z,25.00
2022-08-26T05:41:57.505Z,25.10
2022-08-26T05:44:00.034Z,25.00
2022-08-26T05:46:05.958Z,25.00
2022-08-26T05:48:08.184Z,25.00
2022-08-26T05:50:13.438Z,25.00
2022-08-26T05:52:16.073Z,25.10
2022-08-26T05:54:21.858Z,25.00
2022-08-26T05:56:27.852Z,25.00
2022-08-26T05:58:29.604Z,25.10
2022-08-26T06:00:31.352Z,25.10
2022-08-26T06:02:33.075Z,25.10
2022-08-26T06:04:35.273Z,25.10
2022-08-26T06:06:41.228Z,25.10
2022-08-26T06:08:43.650Z,25.10
2022-08-26T06:10:47.941Z,25.10
2022-08-26T06:12:50.181Z,25.20
2022-08-26T06:14:52.744Z,25.20
2022-08-26T06:16:54.909Z,25.20
2022-08-26T06:18:56.660Z,25.20
2022-08-26T06:20:59.097Z,25.20
2022-08-26T06:23:19.589Z,25.20
2022-08-26T06:25:38.074Z,25.30
2022-08-26T06:27:42.027Z,25.30
2022-08-26T06:29:43.691Z,25.30
2022-08-26T06:31:45.360Z,25.30
2022-08-26T06:33:47.092Z,25.30
2022-08-26T06:35:50.795Z,25.30
2022-08-26T06:37:52.463Z,25.30
2022-08-26T06:39:54.145Z,25.30
2022-08-26T06:41:56.866Z,25.30
2022-08-26T06:44:00.426Z,25.30
2022-08-26T06:46:04.771Z,25.30
2022-08-26T06:48:09.723Z,25.30
2022-08-26T06:50:11.617Z,25.30
2022-08-26T06:52:13.338Z,25.30
2022-08-26T06:54:15.083Z,25.30
2022-08-26T06:56:18.954Z,25.30
2022-08-26T06:58:20.679Z,25.30
2022-08-26T07:00:22.493Z,25.30
2022-08-26T07:02:24.235Z,25.30
2022-08-26T07:04:30.312Z,25.30
2022-08-26T07:06:35.482Z,25.30
2022-08-26T07:08:40.841Z,25.30
2022-08-26T07:10:42.944Z,25.30
2022-08-26T07:12:47.005Z,25.30
2022-08-26T07:14:49.416Z,25.30
2022-08-26T07:16:51.111Z,25.30
2022-08-26T07:18:53.891Z,25.30
2022-08-26T07:20:55.543Z,25.30
2022-08-26T07:22:58.926Z,25.40
2022-08-26T07:25:00.600Z,25.40
2022-08-26T07:27:06.771Z,25.40
2022-08-26T07:29:12.380Z,25.40
2022-08-26T07:31:15.111Z,25.40
2022-08-26T07:33:19.773Z,25.50
2022-08-26T07:35:21.508Z,25.50
2022-08-26T07:37:23.179Z,25.50
2022-08-26T07:39:25.524Z,25.50
2022-08-26T07:41:27.339Z,25.60
2022-08-26T07:43:29.959Z,25.60
2022-08-26T07:45:31.642Z,25.70
2022-08-26T07:47:33.333Z,25.70
2022-08-26T07:49:35.557Z,25.70
2022-08-26T07:51:37.652Z,25.80
2022-08-26T07:53:39.857Z,25.80
2022-08-26T07:55:41.553Z,25.90
2022-08-26T07:57:43.639Z,25.90
2022-08-26T07:59:48.110Z,25.90
2022-08-26T08:01:52.807Z,26.00
2022-08-26T08:03:54.643Z,26.00
2022-08-26T08:05:56.984Z,26.00
2022-08-26T08:08:19.726Z,26.10
2022-08-26T08:10:22.664Z,26.10
2022-08-26T08:12:27.036Z,26.20
2022-08-26T08:14:28.800Z,26.30
2022-08-26T08:16:32.262Z,26.30
2022-08-26T08:18:35.053Z,26.40
2022-08-26T08:20:36.763Z,26.40
2022-08-26T08:22:38.583Z,26.50
2022-08-26T08:24:40.264Z,26.60
2022-08-26T08:26:42.312Z,26.60
2022-08-26T08:28:44.104Z,26.70
2022-08-26T08:30:45.867Z,26.70
2022-08-26T08:32:48.068Z,26.70
2022-08-26T08:34:49.794Z,26.80
2022-08-26T08:36:53.555Z,26.80
2022-08-26T08:38:55.907Z,26.90
2022-08-26T08:40:58.427Z,26.90
2022-08-26T08:43:04.609Z,27.00
2022-08-26T08:45:11.295Z,27.00
2022-08-26T08:47:24.018Z,27.10
2022-08-26T08:49:29.236Z,27.10
2022-08-26T08:51:31.431Z,27.20
2022-08-26T08:53:37.616Z,27.20
2022-08-26T08:55:59.707Z,27.20
2022-08-26T08:58:11.818Z,27.30
2022-08-26T09:00:22.276Z,27.30
2022-08-26T09:02:44.240Z,27.40
2022-08-26T09:04:51.953Z,27.40
2022-08-26T09:08:57.550Z,27.50
2022-08-26T09:11:00.363Z,27.50
2022-08-26T09:13:04.790Z,27.50
2022-08-26T09:15:11.271Z,27.60
2022-08-26T09:17:12.995Z,27.60
2022-08-26T09:19:18.823Z,27.60
2022-08-26T09:21:23.443Z,27.70
2022-08-26T09:23:26.978Z,27.70
2022-08-26T09:25:28.920Z,27.70
2022-08-26T09:27:52.370Z,27.80
2022-08-26T09:29:59.002Z,27.80
2022-08-26T09:32:19.607Z,27.90
2022-08-26T09:34:24.621Z,27.90
2022-08-26T09:36:41.525Z,27.90
2022-08-26T09:38:43.847Z,28.00
2022-08-26T09:40:59.213Z,28.00
2022-08-26T09:43:05.972Z,28.10
2022-08-26T09:45:10.461Z,28.20
2022-08-26T09:47:12.178Z,28.20
2022-08-26T09:49:32.674Z,28.20
2022-08-26T09:51:37.484Z,28.30
2022-08-26T09:53:51.318Z,28.40
2022-08-26T09:56:10.569Z,28.40
2022-08-26T09:58:13.736Z,28.50
2022-08-26T10:00:27.546Z,28.50
2022-08-26T10:02:29.228Z,28.60
2022-08-26T10:04:31.136Z,28.60
2022-08-26T10:06:36.942Z,28.70
2022-08-26T10:08:41.810Z,28.70
2022-08-26T10:10:46.151Z,28.70
2022-08-26T10:12:53.797Z,28.70
2022-08-26T10:14:57.720Z,28.80
2022-08-26T10:17:22.520Z,28.80
2022-08-26T10:19:40.204Z,28.90
2022-08-26T10:21:49.919Z,28.90
2022-08-26T10:23:56.340Z,29.00
2022-08-26T10:26:01.903Z,29.00
2022-08-26T10:28:09.683Z,29.10
2022-08-26T10:30:22.416Z,29.10
2022-08-26T10:32:50.608Z,29.10
2022-08-26T10:34:52.790Z,29.10
2022-08-26T10:37:13.948Z,29.30
2022-08-26T10:39:23.794Z,29.20
2022-08-26T10:41:26.801Z,29.30
2022-08-26T10:43:30.568Z,29.30
2022-08-26T10:45:33.250Z,29.40
2022-08-26T10:47:41.259Z,29.40
2022-08-26T10:49:44.181Z,29.50
2022-08-26T10:52:03.977Z,29.50
2022-08-26T10:54:24.106Z,29.60
2022-08-26T10:56:29.701Z,29.70
2022-08-26T10:58:37.986Z,29.80
2022-08-26T11:01:01.442Z,29.80
2022-08-26T11:03:29.322Z,29.90
2022-08-26T11:05:30.989Z,30.00
2022-08-26T11:07:36.604Z,30.00
2022-08-26T11:09:46.081Z,30.10
2022-08-26T11:11:48.691Z,30.10
2022-08-26T11:13:56.253Z,30.20
2022-08-26T11:15:58.613Z,30.20
2022-08-26T11:18:04.524Z,30.20
2022-08-26T11:20:13.525Z,30.30
2022-08-26T11:22:28.571Z,30.30
2022-08-26T11:24:59.073Z,30.30
2022-08-26T11:27:01.114Z,30.30
2022-08-26T11:29:03.400Z,30.40
2022-08-26T11:31:08.564Z,30.40
2022-08-26T11:33:11.217Z,30.40
2022-08-26T11:35:19.338Z,30.40
2022-08-26T11:37:22.239Z,30.40
2022-08-26T11:39:30.100Z,30.50
2022-08-26T11:41:33.159Z,30.40
2022-08-26T11:43:36.096Z,30.50
2022-08-26T11:45:48.871Z,30.50
2022-08-26T11:47:52.692Z,30.50
2022-08-26T11:50:12.736Z,30.50
2022-08-26T11:52:20.926Z,30.50
2022-08-26T11:54:35.142Z,30.50
2022-08-26T11:56:39.249Z,30.50
2022-08-26T11:58:42.806Z,30.50
2022-08-26T12:00:50.957Z,30.50
2022-08-26T12:02:53.474Z,30.50
2022-08-26T12:04:56.131Z,30.50
2022-08-26T12:07:00.584Z,30.50
2022-08-26T12:09:05.360Z,30.60
2022-08-26T12:11:09.396Z,30.50
2022-08-26T12:13:22.614Z,30.50
2022-08-26T12:15:24.618Z,30.60
2022-08-26T12:17:27.310Z,30.60
2022-08-26T12:19:29.015Z,30.60
2022-08-26T12:21:35.094Z,30.60
2022-08-26T12:23:44.749Z,30.60
2022-08-26T12:25:46.770Z,30.70
2022-08-26T12:27:53.641Z,30.70
2022-08-26T12:30:04.617Z,30.80
2022-08-26T12:32:13.449Z,30.90
2022-08-26T12:34:17.877Z,31.00
2022-08-26T12:36:39.843Z,31.10
2022-08-26T12:38:41.513Z,31.20
2022-08-26T12:40:44.536Z,31.40
2022-08-26T12:42:46.688Z,31.50
2022-08-26T12:44:58.503Z,31.60
2022-08-26T12:47:04.364Z,31.80
2022-08-26T12:49:06.156Z,32.00
2022-08-26T12:51:14.956Z,32.10
2022-08-26T12:53:23.732Z,32.20
2022-08-26T12:55:25.394Z,32.30
2022-08-26T12:57:29.037Z,32.50
2022-08-26T12:59:30.712Z,32.60
2022-08-26T13:01:37.941Z,32.60
2022-08-26T13:03:43.316Z,32.70
2022-08-26T13:05:45.098Z,32.70
2022-08-26T13:08:05.691Z,32.80
2022-08-26T13:10:07.380Z,32.80
2022-08-26T13:12:09.027Z,32.80
2022-08-26T13:14:12.371Z,32.80
2022-08-26T13:16:21.312Z,32.80
2022-08-26T13:18:23.015Z,32.80
2022-08-26T13:20:24.728Z,32.80
2022-08-26T13:22:26.520Z,32.70
2022-08-26T13:24:31.705Z,32.60
2022-08-26T13:26:33.498Z,32.50
2022-08-26T13:28:35.229Z,32.20
2022-08-26T13:30:37.013Z,32.00
2022-08-26T13:32:39.268Z,31.70
2022-08-26T13:34:41.742Z,31.50
2022-08-26T13:36:44.723Z,31.30
2022-08-26T13:38:51.871Z,31.00
2022-08-26T13:40:53.824Z,30.70
2022-08-26T13:42:55.555Z,30.50
2022-08-26T13:44:58.124Z,30.20
2022-08-26T13:46:59.891Z,30.10
2022-08-26T13:49:02.095Z,29.90
2022-08-26T13:51:03.891Z,29.70
2022-08-26T13:53:11.379Z,29.50
2022-08-26T13:55:13.060Z,29.40
2022-08-26T13:57:14.810Z,29.20
2022-08-26T13:59:16.515Z,29.10
2022-08-26T14:01:18.374Z,29.00
2022-08-26T14:03:21.629Z,28.90
2022-08-26T14:05:23.360Z,28.80
2022-08-26T14:07:25.047Z,28.70
2022-08-26T14:09:26.738Z,28.70
2022-08-26T14:11:30.017Z,28.60
2022-08-26T14:13:39.244Z,28.60
2022-08-26T14:15:40.962Z,28.60
2022-08-26T14:17:43.188Z,28.60
2022-08-26T14:19:46.008Z,28.60
2022-08-26T14:21:47.774Z,28.60
2022-08-26T14:23:49.455Z,28.60
2022-08-26T14:25:51.252Z,28.60
2022-08-26T14:27:56.788Z,28.70
2022-08-26T14:29:59.384Z,28.80
2022-08-26T14:32:02.473Z,28.80
2022-08-26T14:34:05.395Z,28.90
2022-08-26T14:36:26.121Z,29.00
2022-08-26T14:38:27.778Z,29.00
2022-08-26T14:40:30.688Z,29.20
2022-08-26T14:42:32.399Z,29.20
2022-08-26T14:44:34.374Z,29.30
2022-08-26T14:46:41.039Z,29.40
2022-08-26T14:48:42.833Z,29.40
2022-08-26T14:50:44.703Z,29.50
2022-08-26T14:53:04.969Z,29.50
2022-08-26T14:55:06.843Z,29.60
2022-08-26T14:57:09.123Z,29.60
2022-08-26T14:59:12.039Z,29.60
2022-08-26T15:01:14.958Z,29.70
2022-08-26T15:05:18.307Z,29.80
2022-08-26T15:07:19.979Z,29.70
2022-08-26T15:09:22.735Z,29.60
2022-08-26T15:11:24.686Z,29.60
2022-08-26T15:13:26.363Z,29.60
2022-08-26T15:15:29.401Z,29.50
2022-08-26T15:17:31.162Z,29.40
2022-08-26T15:19:32.852Z,29.40
2022-08-26T15:21:35.190Z,29.30
2022-08-26T15:23:39.104Z,29.30
2022-08-26T15:25:45.039Z,29.20
2022-08-26T15:27:46.721Z,29.10
2022-08-26T15:29:48.501Z,29.00
2022-08-26T15:31:50.747Z,28.90
2022-08-26T15:33:52.527Z,28.80
2022-08-26T15:35:54.183Z,28.80
2022-08-26T15:37:55.848Z,28.70
2022-08-26T15:39:57.552Z,28.60
2022-08-26T15:41:59.738Z,28.50
2022-08-26T15:44:01.944Z,28.50
2022-08-26T15:46:10.269Z,28.40
2022-08-26T15:48:12.322Z,28.30
2022-08-26T15:50:17.874Z,28.20
2022-08-26T15:52:19.554Z,28.20
2022-08-26T15:54:22.076Z,28.10
2022-08-26T15:56:25.386Z,28.10
2022-08-26T15:58:28.394Z,28.00
2022-08-26T16:00:30.106Z,28.00
2022-08-26T16:02:32.405Z,27.90
2022-08-26T16:04:34.237Z,27.90
2022-08-26T16:06:37.460Z,27.80
2022-08-26T16:08:39.205Z,27.80
2022-08-26T16:10:47.755Z,27.80
2022-08-26T16:12:51.592Z,27.70
2022-08-26T16:14:53.900Z,27.70
2022-08-26T16:16:57.880Z,27.60
2022-08-26T16:19:00.599Z,27.60
2022-08-26T16:21:13.806Z,27.60
2022-08-26T16:23:16.430Z,27.50
2022-08-26T16:25:18.188Z,27.50
2022-08-26T16:27:20.692Z,27.50
2022-08-26T16:29:24.862Z,27.40
2022-08-26T16:31:26.578Z,27.40
2022-08-26T16:33:31.643Z,27.30
2022-08-26T16:35:33.370Z,27.30
2022-08-26T16:37:37.679Z,27.30
2022-08-26T16:39:45.046Z,27.20
2022-08-26T16:41:47.046Z,27.20
2022-08-26T16:43:48.794Z,27.20
2022-08-26T16:45:50.528Z,27.10
2022-08-26T16:47:52.411Z,27.10
2022-08-26T16:49:54.087Z,27.10
2022-08-26T16:51:55.834Z,27.00
2022-08-26T16:53:58.043Z,27.00
2022-08-26T16:55:59.840Z,26.90
2022-08-26T16:58:01.573Z,27.00
2022-08-26T17:00:09.837Z,26.90
2022-08-26T17:02:11.847Z,26.90
2022-08-26T17:04:13.533Z,26.90
2022-08-26T17:06:15.312Z,26.80
2022-08-26T17:08:28.616Z,26.80
2022-08-26T17:10:31.215Z,26.80
2022-08-26T17:12:33.662Z,26.80
2022-08-26T17:14:35.351Z,26.80
2022-08-26T17:16:37.053Z,26.80
2022-08-26T17:18:38.886Z,26.70
2022-08-26T17:20:40.587Z,26.70
2022-08-26T17:22:43.833Z,26.70
2022-08-26T17:24:45.562Z,26.60
2022-08-26T17:26:48.434Z,26.70
2022-08-26T17:28:55.548Z,26.60
2022-08-26T17:30:57.944Z,26.60
2022-08-26T17:32:59.799Z,26.60
2022-08-26T17:35:01.955Z,26.50
2022-08-26T17:37:03.703Z,26.50
2022-08-26T17:39:05.390Z,26.50
2022-08-26T17:41:12.100Z,26.50
2022-08-26T17:43:13.816Z,26.40
2022-08-26T17:45:15.909Z,26.40
2022-08-26T17:47:17.680Z,26.30
2022-08-26T17:49:19.374Z,26.30
2022-08-26T17:51:21.835Z,26.30
2022-08-26T17:53:24.062Z,26.30
2022-08-26T17:55:25.934Z,26.30
2022-08-26T17:57:27.623Z,26.20
2022-08-26T17:59:31.119Z,26.30
2022-08-26T18:01:32.988Z,26.20
2022-08-26T18:03:35.159Z,26.20
2022-08-26T18:05:36.906Z,26.10
2022-08-26T18:07:43.752Z,26.10
2022-08-26T18:09:45.954Z,26.10
2022-08-26T18:11:47.590Z,26.10
2022-08-26T18:13:49.304Z,26.10
2022-08-26T18:15:51.009Z,26.10
2022-08-26T18:17:52.973Z,26.00
2022-08-26T18:19:54.869Z,26.00
2022-08-26T18:21:56.860Z,26.00
2022-08-26T18:23:58.870Z,26.00
2022-08-26T18:26:00.523Z,25.90
2022-08-26T18:28:04.042Z,25.90
2022-08-26T18:30:07.156Z,25.90
2022-08-26T18:32:08.846Z,25.90
2022-08-26T18:34:12.917Z,25.90
2022-08-26T18:36:15.487Z,25.80
2022-08-26T18:38:17.631Z,25.80
2022-08-26T18:40:21.099Z,25.80
2022-08-26T18:42:23.988Z,25.80
2022-08-26T18:44:25.797Z,25.70
2022-08-26T18:46:27.815Z,25.70
2022-08-26T18:48:29.576Z,25.70
2022-08-26T18:50:31.239Z,25.70
2022-08-26T18:52:32.989Z,25.70
2022-08-26T18:54:35.358Z,25.70
2022-08-26T18:56:37.980Z,25.70
2022-08-26T18:58:39.888Z,25.70
2022-08-26T19:00:41.576Z,25.60
2022-08-26T19:02:43.309Z,25.60
2022-08-26T19:04:53.719Z,25.60
2022-08-26T19:06:55.965Z,25.60
2022-08-26T19:08:57.846Z,25.60
2022-08-26T19:10:59.946Z,25.50
2022-08-26T19:13:02.513Z,25.50
2022-08-26T19:15:04.672Z,25.50
2022-08-26T19:17:06.453Z,25.50
2022-08-26T19:19:08.234Z,25.50
2022-08-26T19:21:09.942Z,25.50
2022-08-26T19:23:30.487Z,25.50
2022-08-26T19:25:33.289Z,25.50
2022-08-26T19:27:34.965Z,25.50
2022-08-26T19:29:36.734Z,25.50
2022-08-26T19:31:38.382Z,25.50
2022-08-26T19:33:41.837Z,25.50
2022-08-26T19:35:43.699Z,25.50
2022-08-26T19:37:45.971Z,25.50
2022-08-26T19:39:47.869Z,25.40
2022-08-26T19:41:49.562Z,25.50
2022-08-26T19:43:51.262Z,25.40
2022-08-26T19:45:54.029Z,25.40
2022-08-26T19:47:55.928Z,25.40
2022-08-26T19:49:57.573Z,25.40
2022-08-26T19:51:59.247Z,25.40
2022-08-26T19:54:01.079Z,25.40
2022-08-26T19:56:02.917Z,25.40
2022-08-26T19:58:05.512Z,25.40
2022-08-26T20:00:10.330Z,25.40
2022-08-26T20:02:12.260Z,25.40
2022-08-26T20:04:14.052Z,25.40
2022-08-26T20:06:16.422Z,25.40
2022-08-26T20:08:22.186Z,25.30
2022-08-26T20:10:24.735Z,25.40
2022-08-26T20:12:27.776Z,25.30
2022-08-26T20:14:29.914Z,25.40
2022-08-26T20:16:32.805Z,25.30
2022-08-26T20:18:53.180Z,25.30
2022-08-26T20:21:13.655Z,25.30
2022-08-26T20:23:16.767Z,25.30
2022-08-26T20:25:18.586Z,25.20
2022-08-26T20:27:27.379Z,25.30
2022-08-26T20:29:40.398Z,25.20
2022-08-26T20:31:43.967Z,25.20
2022-08-26T20:33:46.467Z,25.20
2022-08-26T20:35:48.511Z,25.20
2022-08-26T20:37:50.286Z,25.20
2022-08-26T20:39:54.309Z,25.20
2022-08-26T20:41:57.024Z,25.20
2022-08-26T20:43:59.282Z,25.20
2022-08-26T20:46:01.999Z,25.20
2022-08-26T20:48:04.376Z,25.20
2022-08-26T20:50:06.458Z,25.20
2022-08-26T20:52:08.279Z,25.20
2022-08-26T20:54:11.935Z,25.20
2022-08-26T20:56:15.021Z,25.10
2022-08-26T20:58:16.903Z,25.10
2022-08-26T21:00:22.692Z,25.10
2022-08-26T21:02:28.354Z,25.10
2022-08-26T21:04:30.275Z,25.10
2022-08-26T21:06:35.303Z,25.10
2022-08-26T21:08:43.151Z,25.10
2022-08-26T21:10:45.586Z,25.10
2022-08-26T21:12:47.661Z,25.10
2022-08-26T21:14:49.828Z,25.10
2022-08-26T21:16:51.841Z,25.10
2022-08-26T21:18:53.729Z,25.10
2022-08-26T21:20:55.595Z,25.10
2022-08-26T21:22:57.386Z,25.00
2022-08-26T21:24:59.176Z,25.00
2022-08-26T21:27:01.036Z,25.10
2022-08-26T21:29:05.188Z,25.00
2022-08-26T21:31:08.228Z,25.00
2022-08-26T21:33:09.982Z,25.00
2022-08-26T21:35:27.212Z,25.00
2022-08-26T21:37:51.438Z,25.10
2022-08-26T21:46:40.962Z,24.90
2022-08-26T21:49:22.766Z,25.00
2022-08-26T21:51:30.895Z,25.00
2022-08-26T21:54:17.664Z,25.00
2022-08-26T22:05:48.605Z,24.90
2022-08-26T22:11:19.959Z,24.90
2022-08-26T22:27:27.050Z,24.80
2022-08-26T22:29:36.844Z,24.80
2022-08-26T22:41:21.197Z,24.70
2022-08-26T22:44:00.673Z,24.70
2022-08-26T22:46:47.973Z,24.70
2022-08-26T22:51:46.026Z,24.70
2022-08-26T22:54:26.352Z,24.70
2022-08-26T22:59:24.339Z,24.60
2022-08-26T23:01:36.812Z,24.70
2022-08-26T23:04:19.096Z,24.70
2022-08-26T23:06:28.321Z,24.60
2022-08-26T23:08:40.431Z,24.60
2022-08-26T23:10:45.059Z,24.80
2022-08-26T23:12:53.059Z,24.60
2022-08-26T23:14:59.091Z,24.60
2022-08-26T23:17:07.498Z,24.60
2022-08-26T23:19:19.866Z,24.60
2022-08-26T23:21:28.184Z,24.60
2022-08-26T23:26:45.183Z,24.50
2022-08-26T23:29:28.699Z,24.60
2022-08-26T23:41:17.824Z,24.40
2022-08-26T23:46:37.169Z,24.50
2022-08-26T23:48:52.493Z,24.40
2022-08-26T23:53:32.288Z,24.50
2022-08-26T23:55:51.887Z,24.40
